• Join FlightAware (Why Join?)
  • Login
  • US Flag 
07:37AM EDT


 

Airport Tracker/Info


-or-


 

Live Flight TrackerFlight Track Log ✈ N5262Y ✈ 12-Aug-2013 ✈ KBYI - KOGD

Flight Track Log - Related Links

Times and Time Zones

All times are in EDT time to prevent confusion due to time zone crossing. See the N5262Y flight status page for this flight to view local times or setup timezone preferences in your user account.

Time Position Orientation Groundspeed Altitude Reporting Facility
EDT Latitude Longitude Course Direction KTS MPH feet Rate Location/Type
12:12AM 42.6122 -113.8933 86° East 63 72 8,500  Level Salt Lake Center
12:13AM 42.5847 -113.8664 144° Southeast 93 107 8,900 240 Climbing Salt Lake Center
12:14AM 42.5642 -113.8461 144° Southeast 94 108 9,100 240 Climbing Salt Lake Center
12:15AM 42.5439 -113.8158 132° Southeast 97 112 9,500 300 Climbing Salt Lake Center
12:16AM 42.4266 -113.6156 129° Southeast  Level Estimated
12:16AM 42.5294 -113.7897 127° Southeast 93 107 9,800  Level Salt Lake Center
12:17AM 42.5133 -113.7683 136° Southeast 86 99 10,100 240 Climbing Salt Lake Center
12:18AM 42.4981 -113.7478 135° Southeast 81 93 10,400 180 Climbing Salt Lake Center
12:19AM 42.4814 -113.7264 137° Southeast 81 93 10,500 120 Climbing Salt Lake Center
12:20AM 42.4639 -113.7022 134° Southeast 86 99 10,700 240 Climbing Salt Lake Center
12:21AM 42.4478 -113.6775 131° Southeast 89 102 11,000 240 Climbing Salt Lake Center
12:22AM 42.4278 -113.6569 143° Southeast 90 104 11,300 240 Climbing Salt Lake Center
12:23AM 42.4075 -113.6364 143° Southeast 91 105 11,600 240 Climbing Salt Lake Center
12:24AM 42.3894 -113.6131 136° Southeast 90 104 11,800 180 Climbing Salt Lake Center
12:25AM 42.3692 -113.5814 131° Southeast 93 107 12,000 180 Climbing Salt Lake Center
12:27AM 42.3486 -113.5586 141° Southeast 94 108 12,200  Climbing Salt Lake Center
12:28AM 42.3278 -113.5311 136° Southeast 101 116 12,100  Descending Salt Lake Center
12:29AM 42.3111 -113.5014 127° Southeast 100 115 12,200  Climbing Salt Lake Center
12:30AM 42.2936 -113.4703 127° Southeast 102 117 12,100 -60 Descending Salt Lake Center
12:31AM 42.2719 -113.4433 137° Southeast 106 122 12,100  Level Salt Lake Center
12:32AM 42.2514 -113.4172 137° Southeast 104 120 12,100  Level Salt Lake Center
12:33AM 42.2319 -113.3906 135° Southeast 100 115 12,200  Climbing Salt Lake Center
12:34AM 42.2103 -113.3642 138° Southeast 103 119 12,200  Level Salt Lake Center
12:35AM 42.1833 -113.3328 139° Southeast 106 122 12,200  Level Salt Lake Center
12:36AM 42.1608 -113.3072 140° Southeast 106 122 12,200  Level Salt Lake Center
12:37AM 42.1378 -113.2836 143° Southeast 105 121 12,200  Level Salt Lake Center
12:38AM 42.1144 -113.2547 137° Southeast 110 127 12,300  Climbing Salt Lake Center
12:39AM 42.0947 -113.2250 132° Southeast 109 125 12,300 -60 Level Salt Lake Center
12:40AM 42.0803 -113.1903 119° Southeast 105 121 12,200 -180 Descending Salt Lake Center
12:41AM 42.0592 -113.1622 135° Southeast 107 123 12,000 -120 Descending Salt Lake Center
12:42AM 42.0392 -113.1344 134° Southeast 103 119 12,000  Level Salt Lake Center
12:43AM 42.0217 -113.1064 130° Southeast 100 115 12,000  Level Salt Lake Center
12:44AM 42.0031 -113.0764 130° Southeast 103 119 12,100  Climbing Salt Lake Center
12:45AM 41.9778 -113.0433 136° Southeast 105 121 12,100  Level Salt Lake Center
12:46AM 41.9572 -113.0150 134° Southeast 106 122 12,200  Climbing Salt Lake Center
12:47AM 41.9339 -112.9872 138° Southeast 108 124 12,100  Descending Salt Lake Center
12:48AM 41.9108 -112.9589 138° Southeast 111 128 12,200  Climbing Salt Lake Center
12:49AM 41.8881 -112.9300 137° Southeast 112 129 12,200  Level Salt Lake Center
12:50AM 41.8667 -112.8981 132° Southeast 114 131 12,300  Climbing Salt Lake Center
12:51AM 41.8433 -112.8681 136° Southeast 115 132 12,300 -60 Level Salt Lake Center
12:52AM 41.8208 -112.8378 135° Southeast 115 132 12,200 -60 Descending Salt Lake Center
12:53AM 41.7986 -112.8089 136° Southeast 114 131 12,200  Level Salt Lake Center
12:54AM 41.7761 -112.7800 136° Southeast 113 130 12,300  Climbing Salt Lake Center
12:56AM 41.7513 -112.7396 129° Southeast  Level FlightAware Approximate
12:57AM 41.7064 -112.6931 129° Southeast 107 123 12,200  Level Salt Lake Center
12:58AM 41.6833 -112.6644 137° Southeast 110 127 12,200  Level Salt Lake Center
12:59AM 41.6619 -112.6358 135° Southeast 110 127 12,200 -60 Level Salt Lake Center
01:00AM 41.6400 -112.6081 137° Southeast 109 125 12,100 -60 Descending Salt Lake Center
01:01AM 41.6164 -112.5781 136° Southeast 107 123 12,100  Level Salt Lake Center
01:02AM 41.6033 -112.5533 125° Southeast 106 122 12,200  Climbing Salt Lake Center
01:03AM 41.5775 -112.5192 135° Southeast 108 124 12,200 -60 Level Salt Lake Center
01:04AM 41.5547 -112.4897 136° Southeast 110 127 12,100 -180 Descending Salt Lake Center
01:05AM 41.5319 -112.4600 136° Southeast 115 132 11,900 -120 Descending Salt Lake Center
01:06AM 41.5092 -112.4306 136° Southeast 112 129 11,900  Level Salt Lake Center
01:07AM 41.4889 -112.4031 135° Southeast 106 122 12,000  Climbing Salt Lake Center
01:08AM 41.4706 -112.3750 131° Southeast 105 121 11,900 -60 Descending Salt Lake Center
01:09AM 41.4517 -112.3442 129° Southeast 107 123 11,900 -180 Level Salt Lake Center
01:10AM 41.4283 -112.3119 134° Southeast 108 124 11,600 -480 Descending Salt Lake Center
01:11AM 41.4042 -112.2858 141° Southeast 113 130 11,000 -600 Descending Salt Lake Center
01:12AM 41.3814 -112.2681 150° Southeast 117 135 10,500 -600 Descending Salt Lake Center
01:13AM 41.3483 -112.2647 176° South 114 131 9,900 -600 Descending Salt Lake Center
01:14AM 41.3192 -112.2575 169° South 107 123 9,300 -600 Descending Salt Lake Center
01:15AM 41.2917 -112.2497 168° South 100 115 8,700 -600 Descending Salt Lake Center
01:16AM 41.2650 -112.2444 172° South 97 112 8,100 -600 Descending Salt Lake Center
01:17AM 41.2400 -112.2386 170° South 95 109 7,500 -600 Descending Salt Lake Center
01:18AM 41.2147 -112.2300 166° South 91 105 7,000 -360 Descending Salt Lake Center
01:19AM 41.1900 -112.2242 170° South 93 107 6,800 -300 Descending Salt Lake Center
01:21AM 41.1522 -112.2169 172° South 102 117 6,400 -300 Descending Salt Lake Center
01:21AM 41.1297 -112.2133 173° South 107 123 6,200 -180 Descending Salt Lake Center
01:22AM 41.1044 -112.2047 166° South 99 114 6,100 -60 Descending Salt Lake Center
01:23AM 41.0847 -112.1803 137° Southeast 95 109 6,100 -60 Level Salt Lake Center
01:24AM 41.0931 -112.1461 72° East 104 120 6,000  Descending Salt Lake Center
01:25AM 41.1133 -112.1164 48° Northeast 105 121 6,100 -60 Climbing Salt Lake Center
01:26AM 41.1339 -112.0897 44° Northeast 96 110 5,900 -300 Descending Salt Lake Center
01:28AM 41.1511 -112.0667 45° Northeast 88 101 5,500 -420 Descending Salt Lake Center
01:28AM 41.1681 -112.0439 45° Northeast 86 99 5,100 -360 Descending Salt Lake Center
01:29AM 41.1892 -112.0308 25° Northeast 89 102 4,900 -120 Descending Salt Lake Center
01:30AM 41.2114 -112.0233 14° North 87 100 4,900 -240 Level Salt Lake Center
01:32AM 41.1931 -112.0133 158° South 79 91 4,400 -420 Descending Salt Lake Center